Time;durP1;ratioP1;P1;durP2;ratioP2;P2;SDS_P1;SDS_P2;PMS_P1;PMS_P2;Temp;Humidity;BMP_temperature;BMP_pressure;BME280_temperature;BME280_humidity;BME280_pressure;Samples;Min_cycle;Max_cycle;Signal;HPM_P1;HPM_P2
2021/09/28 00:00:17;;;;;;;1.50;1.40;;;14.90;99.90;;;;;;5008139;28;20211;-82
2021/09/28 00:05:41;;;;;;;1.50;1.25;;;14.90;99.90;;;;;;5017545;28;20240;-83
2021/09/28 00:08:08;;;;;;;1.52;1.42;;;14.90;99.90;;;;;;5018806;28;20217;-83
2021/09/28 00:10:36;;;;;;;2.38;1.40;;;14.90;99.90;;;;;;5017979;28;20220;-85
2021/09/28 00:13:05;;;;;;;2.58;1.50;;;14.80;99.90;;;;;;5016204;28;20245;-81
2021/09/28 00:15:32;;;;;;;2.90;2.22;;;14.90;99.90;;;;;;5015661;28;20213;-86
2021/09/28 00:18:00;;;;;;;1.58;1.48;;;14.90;99.90;;;;;;5016672;28;20212;-81
2021/09/28 00:20:29;;;;;;;2.55;1.40;;;14.90;99.90;;;;;;5004816;28;20233;-81
2021/09/28 00:22:56;;;;;;;2.22;1.60;;;14.90;99.90;;;;;;5004507;28;20449;-82
2021/09/28 00:25:24;;;;;;;3.55;1.50;;;14.90;99.90;;;;;;5002118;28;20230;-82
2021/09/28 00:27:50;;;;;;;1.60;1.50;;;14.90;99.90;;;;;;5002873;28;20219;-81
2021/09/28 00:30:18;;;;;;;2.13;1.92;;;14.80;99.90;;;;;;5002656;28;20226;-81
2021/09/28 00:32:45;;;;;;;1.80;1.70;;;14.80;99.90;;;;;;5002418;28;20206;-81
2021/09/28 00:35:13;;;;;;;2.38;1.50;;;14.70;99.90;;;;;;5015902;28;20215;-87
2021/09/28 00:37:42;;;;;;;2.75;1.90;;;14.70;99.90;;;;;;5020541;28;20263;-85
2021/09/28 00:40:10;;;;;;;3.10;2.13;;;14.70;99.90;;;;;;5018704;28;20206;-84
2021/09/28 00:42:37;;;;;;;1.77;1.65;;;14.60;99.90;;;;;;5019253;28;20224;-83
2021/09/28 00:45:07;;;;;;;2.10;1.90;;;14.60;99.90;;;;;;5011173;28;20257;-83
2021/09/28 00:47:34;;;;;;;1.52;1.42;;;14.50;99.90;;;;;;5003778;28;20620;-82
2021/09/28 00:50:01;;;;;;;1.73;1.60;;;14.50;99.90;;;;;;5001654;28;20209;-81
2021/09/28 00:52:32;;;;;;;1.98;1.88;;;14.50;99.90;;;;;;5004070;28;20216;-81
2021/09/28 00:54:59;;;;;;;4.00;1.90;;;14.40;99.90;;;;;;4984314;28;20230;-80
2021/09/28 00:57:26;;;;;;;2.10;1.90;;;14.40;99.90;;;;;;5001130;28;20229;-81
2021/09/28 00:59:54;;;;;;;2.20;1.70;;;14.40;99.90;;;;;;5003142;28;20686;-81
2021/09/28 01:02:22;;;;;;;1.83;1.60;;;14.40;99.90;;;;;;5003517;28;20205;-82
2021/09/28 01:04:49;;;;;;;2.45;1.90;;;14.30;99.90;;;;;;5004878;28;20253;-81
2021/09/28 01:07:16;;;;;;;3.38;2.00;;;14.20;99.90;;;;;;5009649;28;20271;-83
2021/09/28 01:09:44;;;;;;;2.58;1.80;;;14.20;99.90;;;;;;5003197;28;20214;-81
2021/09/28 01:12:12;;;;;;;1.85;1.75;;;14.10;99.90;;;;;;5002857;28;20733;-81
2021/09/28 01:14:42;;;;;;;2.25;2.05;;;14.10;99.90;;;;;;5004251;28;20287;-80
2021/09/28 01:17:11;;;;;;;2.60;1.75;;;14.10;99.90;;;;;;5004703;28;20211;-80
2021/09/28 01:19:38;;;;;;;2.50;2.00;;;14.10;99.90;;;;;;5012349;28;20205;-82
2021/09/28 01:22:08;;;;;;;4.18;2.08;;;14.10;99.90;;;;;;5006607;28;20241;-80
2021/09/28 01:24:35;;;;;;;1.88;1.70;;;14.10;99.90;;;;;;5005627;28;20229;-82
2021/09/28 01:27:03;;;;;;;3.63;1.70;;;14.10;99.90;;;;;;5003646;28;20249;-82
2021/09/28 01:29:30;;;;;;;9.25;3.35;;;14.10;99.90;;;;;;5008351;28;20232;-82
2021/09/28 01:31:57;;;;;;;3.60;2.55;;;14.20;99.90;;;;;;5003846;28;20201;-81
2021/09/28 01:34:26;;;;;;;1.88;1.65;;;14.20;99.90;;;;;;5000940;28;20226;-83
2021/09/28 01:36:53;;;;;;;6.25;2.40;;;14.20;99.90;;;;;;5011433;28;20208;-83
2021/09/28 01:39:22;;;;;;;3.47;2.00;;;14.20;99.90;;;;;;5014661;28;20217;-82
2021/09/28 01:41:50;;;;;;;3.08;2.13;;;14.20;99.90;;;;;;5002006;28;20213;-84
2021/09/28 01:44:19;;;;;;;3.35;2.28;;;14.20;99.90;;;;;;5002601;28;20283;-83
2021/09/28 01:46:47;;;;;;;6.00;2.35;;;14.20;99.90;;;;;;5002270;28;20244;-82
2021/09/28 01:49:17;;;;;;;4.47;2.35;;;14.10;99.90;;;;;;5004321;28;20202;-83
2021/09/28 01:51:45;;;;;;;5.68;2.35;;;14.10;99.90;;;;;;5003257;28;20239;-83
2021/09/28 01:54:12;;;;;;;2.60;2.10;;;14.00;99.90;;;;;;5002082;28;20234;-82
2021/09/28 01:56:41;;;;;;;4.15;2.03;;;14.00;99.90;;;;;;5005748;28;20208;-82
2021/09/28 01:59:08;;;;;;;2.90;2.28;;;13.90;99.90;;;;;;5006030;28;20212;-82
2021/09/28 02:01:36;;;;;;;2.90;2.05;;;13.90;99.90;;;;;;5005943;28;20216;-83
2021/09/28 02:04:04;;;;;;;4.55;2.10;;;13.80;99.90;;;;;;5006245;28;20216;-83
2021/09/28 02:06:35;;;;;;;9.10;3.38;;;13.80;99.90;;;;;;5006457;28;20226;-82
2021/09/28 02:09:04;;;;;;;2.97;2.10;;;13.70;99.90;;;;;;5007404;28;20209;-83
2021/09/28 02:11:31;;;;;;;4.70;2.50;;;13.60;99.90;;;;;;5006235;28;20237;-82
2021/09/28 02:14:01;;;;;;;2.72;1.95;;;13.70;99.90;;;;;;5012185;28;20216;-85
2021/09/28 02:16:29;;;;;;;6.30;2.40;;;13.60;99.90;;;;;;5018531;28;20224;-84
2021/09/28 02:18:56;;;;;;;3.22;2.03;;;13.60;99.90;;;;;;5018390;28;20204;-83
2021/09/28 02:21:23;;;;;;;3.13;2.60;;;13.50;99.90;;;;;;5018312;28;20188;-83
2021/09/28 02:23:50;;;;;;;6.03;2.42;;;13.50;99.90;;;;;;5015870;28;20243;-86
2021/09/28 02:26:17;;;;;;;4.22;2.63;;;13.50;99.90;;;;;;5018384;28;20280;-84
2021/09/28 02:28:47;;;;;;;5.72;2.72;;;13.50;99.90;;;;;;5018366;28;20208;-84
2021/09/28 02:31:15;;;;;;;3.13;2.60;;;13.50;99.90;;;;;;5018292;28;20192;-85
2021/09/28 02:33:42;;;;;;;5.45;2.55;;;13.40;99.90;;;;;;5018213;28;20215;-86
2021/09/28 02:36:09;;;;;;;8.25;2.70;;;13.40;99.90;;;;;;5018372;28;20184;-85
2021/09/28 02:38:36;;;;;;;4.88;2.50;;;13.40;99.90;;;;;;5018392;28;20192;-85
2021/09/28 02:41:03;;;;;;;4.82;2.88;;;13.30;99.90;;;;;;5016608;28;20217;-84
2021/09/28 02:43:30;;;;;;;3.00;2.75;;;13.30;99.90;;;;;;5016584;28;20208;-84
2021/09/28 02:45:57;;;;;;;4.25;2.28;;;13.20;99.90;;;;;;5016353;28;20239;-86
2021/09/28 02:48:26;;;;;;;2.92;2.70;;;13.20;99.90;;;;;;5018267;28;20203;-85
2021/09/28 02:50:54;;;;;;;3.78;2.70;;;13.20;99.90;;;;;;5018019;28;20235;-85
2021/09/28 02:53:21;;;;;;;9.80;3.35;;;13.10;99.90;;;;;;5017845;28;20239;-85
2021/09/28 02:55:48;;;;;;;4.55;2.47;;;13.10;99.90;;;;;;5017670;28;20208;-84
2021/09/28 02:58:15;;;;;;;6.18;3.20;;;13.10;99.90;;;;;;5017445;28;20200;-85
2021/09/28 03:00:43;;;;;;;4.25;3.08;;;13.10;99.90;;;;;;5017783;28;20211;-86
2021/09/28 03:03:10;;;;;;;6.70;3.15;;;13.00;99.90;;;;;;5017816;28;20189;-82
2021/09/28 03:05:38;;;;;;;5.80;3.28;;;13.00;99.90;;;;;;5016694;28;20296;-84
2021/09/28 03:08:05;;;;;;;7.63;4.07;;;13.00;99.90;;;;;;5016557;28;20189;-85
2021/09/28 03:10:32;;;;;;;6.38;3.80;;;12.90;99.90;;;;;;5017091;28;20265;-85
2021/09/28 03:12:59;;;;;;;6.30;4.00;;;12.90;99.90;;;;;;5017643;28;20228;-83
2021/09/28 03:15:26;;;;;;;6.60;4.05;;;12.90;99.90;;;;;;5021472;28;20219;-83
2021/09/28 03:17:53;;;;;;;4.35;3.95;;;12.90;99.90;;;;;;5021909;28;20192;-84
2021/09/28 03:20:20;;;;;;;8.00;4.30;;;12.90;99.90;;;;;;5015159;28;20251;-83
2021/09/28 03:22:49;;;;;;;7.35;4.03;;;12.90;99.90;;;;;;5010319;28;20200;-82
2021/09/28 03:25:16;;;;;;;6.60;3.80;;;12.90;99.90;;;;;;5008285;28;20229;-82
2021/09/28 03:27:43;;;;;;;7.78;4.25;;;12.90;99.90;;;;;;5007608;28;20231;-83
2021/09/28 03:30:11;;;;;;;4.60;3.80;;;12.90;99.90;;;;;;5007851;28;20220;-82
2021/09/28 03:32:39;;;;;;;8.38;3.70;;;12.90;99.90;;;;;;5008268;28;20220;-82
2021/09/28 03:35:09;;;;;;;7.18;4.53;;;12.80;99.90;;;;;;5008669;28;20246;-82
2021/09/28 03:37:36;;;;;;;9.38;4.72;;;12.80;99.90;;;;;;5006968;28;20665;-83
2021/09/28 03:40:06;;;;;;;6.63;4.30;;;12.80;99.90;;;;;;5006736;28;20236;-83
2021/09/28 03:42:33;;;;;;;7.60;4.00;;;12.70;99.90;;;;;;5007623;28;20223;-83
2021/09/28 03:45:00;;;;;;;5.85;4.30;;;12.70;99.90;;;;;;5021095;28;20235;-85
2021/09/28 03:47:27;;;;;;;8.48;4.50;;;12.70;99.90;;;;;;5015724;28;20228;-83
2021/09/28 03:49:54;;;;;;;10.95;5.00;;;12.70;99.90;;;;;;5003546;28;20208;-82
2021/09/28 03:52:21;;;;;;;5.20;4.68;;;12.60;99.90;;;;;;5004026;28;20263;-83
2021/09/28 03:54:48;;;;;;;9.60;4.38;;;12.60;99.90;;;;;;5004867;28;20220;-83
2021/09/28 03:57:16;;;;;;;5.35;4.80;;;12.60;99.90;;;;;;5006396;28;20224;-83
2021/09/28 03:59:46;;;;;;;11.93;5.55;;;12.60;99.90;;;;;;5006339;28;20219;-83
2021/09/28 04:02:13;;;;;;;8.48;4.88;;;12.60;99.90;;;;;;5005179;28;20219;-82
2021/09/28 04:04:41;;;;;;;7.13;5.38;;;12.60;99.90;;;;;;5013006;28;20224;-84
2021/09/28 04:07:08;;;;;;;10.50;4.80;;;12.60;99.90;;;;;;5019819;28;20224;-85
2021/09/28 04:09:36;;;;;;;7.10;4.68;;;12.60;99.90;;;;;;5020893;28;20215;-85
2021/09/28 04:12:03;;;;;;;8.95;4.85;;;12.60;99.90;;;;;;5021177;28;20232;-86
2021/09/28 04:14:32;;;;;;;7.72;4.97;;;12.50;99.90;;;;;;5020962;28;20247;-86
2021/09/28 04:16:59;;;;;;;9.43;5.43;;;12.50;99.90;;;;;;5019124;28;20192;-85
2021/09/28 04:19:26;;;;;;;5.88;4.20;;;12.50;99.90;;;;;;5016880;28;20185;-86
2021/09/28 04:21:53;;;;;;;11.48;5.65;;;12.40;99.90;;;;;;5020961;28;20207;-86
2021/09/28 04:24:20;;;;;;;12.38;5.45;;;12.40;99.90;;;;;;5019218;28;20228;-82
2021/09/28 04:26:47;;;;;;;6.05;4.30;;;12.40;99.90;;;;;;5013027;28;20208;-82
2021/09/28 04:29:14;;;;;;;11.77;5.15;;;12.40;99.90;;;;;;5009980;28;20204;-81
2021/09/28 04:31:42;;;;;;;8.98;4.90;;;12.40;99.90;;;;;;5003585;28;20262;-82
2021/09/28 04:34:09;;;;;;;7.85;5.15;;;12.40;99.90;;;;;;5004002;28;20239;-83
2021/09/28 04:36:36;;;;;;;8.15;4.75;;;12.40;99.90;;;;;;5002737;28;20232;-83
2021/09/28 04:39:03;;;;;;;10.35;4.75;;;12.30;99.90;;;;;;5003657;28;20235;-82
2021/09/28 04:41:30;;;;;;;8.35;5.28;;;12.30;99.90;;;;;;5004182;28;20205;-82
2021/09/28 04:43:57;;;;;;;13.68;4.43;;;12.20;99.90;;;;;;5005295;28;20231;-80
2021/09/28 04:46:25;;;;;;;6.43;4.18;;;12.20;99.90;;;;;;5010649;28;20228;-83
2021/09/28 04:48:54;;;;;;;9.40;4.50;;;12.30;99.90;;;;;;5014805;28;20267;-84
2021/09/28 04:51:21;;;;;;;11.88;5.13;;;12.30;99.90;;;;;;5018605;28;20216;-83
2021/09/28 04:53:48;;;;;;;8.32;4.95;;;12.30;99.90;;;;;;5018934;28;20229;-84
2021/09/28 04:56:15;;;;;;;5.25;4.38;;;12.20;99.90;;;;;;5017215;28;20208;-83
2021/09/28 04:58:42;;;;;;;7.53;5.18;;;12.20;99.90;;;;;;5018620;28;20193;-85
2021/09/28 05:01:09;;;;;;;13.27;6.35;;;12.20;99.90;;;;;;5018956;28;20200;-86
2021/09/28 05:03:37;;;;;;;7.03;4.82;;;12.20;99.90;;;;;;5007573;28;20216;-85
2021/09/28 05:06:15;;;;;;;11.93;5.28;;;12.10;99.90;;;;;;5014265;28;20203;-83
2021/09/28 05:08:43;;;;;;;7.50;5.07;;;12.10;99.90;;;;;;5017656;28;20204;-85
2021/09/28 05:11:11;;;;;;;7.22;6.13;;;12.00;99.90;;;;;;5017536;28;20204;-85
2021/09/28 05:13:40;;;;;;;8.27;5.10;;;12.00;99.90;;;;;;5017748;28;20216;-86
2021/09/28 05:16:07;;;;;;;7.78;5.13;;;12.00;99.90;;;;;;5016646;28;20217;-84
2021/09/28 05:18:35;;;;;;;9.13;6.00;;;12.00;99.90;;;;;;5006721;28;20641;-79
2021/09/28 05:21:02;;;;;;;7.97;5.72;;;12.00;99.90;;;;;;4992826;28;20236;-80
2021/09/28 05:23:31;;;;;;;9.38;5.72;;;12.00;99.90;;;;;;5005918;28;20192;-79
2021/09/28 05:25:58;;;;;;;10.93;5.28;;;12.00;99.90;;;;;;5001395;28;20710;-78
2021/09/28 05:28:25;;;;;;;10.15;5.53;;;12.00;99.90;;;;;;4999185;28;20258;-80
2021/09/28 05:30:54;;;;;;;10.57;6.07;;;12.00;99.90;;;;;;4998433;28;20250;-79
2021/09/28 05:33:24;;;;;;;8.85;5.80;;;12.00;99.90;;;;;;5001381;28;20247;-80
2021/09/28 05:35:51;;;;;;;11.45;5.60;;;12.00;99.90;;;;;;5004618;28;20205;-81
2021/09/28 05:38:17;;;;;;;9.60;5.72;;;12.10;99.90;;;;;;5004039;28;20664;-79
2021/09/28 05:40:46;;;;;;;9.00;6.10;;;12.00;99.90;;;;;;4995443;28;20630;-78
2021/09/28 05:43:13;;;;;;;10.40;5.32;;;12.10;99.90;;;;;;5001039;28;20222;-79
2021/09/28 05:45:40;;;;;;;9.57;5.80;;;12.10;99.90;;;;;;4999563;28;20256;-79
2021/09/28 05:48:07;;;;;;;7.90;5.40;;;12.20;99.90;;;;;;4998422;28;20692;-79
2021/09/28 05:50:35;;;;;;;9.25;6.15;;;12.30;99.90;;;;;;4998592;28;20279;-79
2021/09/28 05:53:06;;;;;;;15.65;7.00;;;12.30;99.90;;;;;;5001508;28;20690;-79
2021/09/28 05:55:33;;;;;;;10.05;6.60;;;12.50;99.90;;;;;;5000413;28;20224;-79
2021/09/28 05:58:02;;;;;;;9.40;6.75;;;12.50;99.90;;;;;;4996074;28;20228;-78
2021/09/28 06:00:29;;;;;;;9.20;7.05;;;12.50;99.90;;;;;;4995081;28;20201;-79
2021/09/28 06:02:56;;;;;;;10.98;6.82;;;12.60;99.90;;;;;;4995666;28;20703;-79
2021/09/28 06:05:23;;;;;;;9.23;6.30;;;12.60;99.90;;;;;;4998135;28;20220;-79
2021/09/28 06:07:51;;;;;;;8.27;6.47;;;12.70;99.90;;;;;;4995528;28;20228;-79
2021/09/28 06:10:18;;;;;;;14.20;6.05;;;12.80;99.90;;;;;;5002518;28;20205;-80
2021/09/28 06:12:45;;;;;;;8.30;6.07;;;12.80;99.90;;;;;;4994837;28;20267;-77
2021/09/28 06:15:14;;;;;;;14.60;6.38;;;13.00;99.90;;;;;;4995797;28;20248;-79
2021/09/28 06:17:44;;;;;;;10.30;6.10;;;12.90;99.90;;;;;;4996034;28;20201;-77
2021/09/28 06:20:12;;;;;;;8.63;6.40;;;13.00;99.90;;;;;;4995298;28;20577;-77
2021/09/28 06:22:39;;;;;;;9.60;6.18;;;13.00;99.90;;;;;;4974815;28;20308;-78
2021/09/28 06:25:07;;;;;;;9.00;5.90;;;13.10;99.90;;;;;;4985355;28;20700;-78
2021/09/28 06:27:35;;;;;;;9.35;6.03;;;13.10;99.90;;;;;;4995137;28;20264;-78
2021/09/28 06:30:02;;;;;;;10.18;5.40;;;13.20;99.90;;;;;;4997101;28;20208;-79
2021/09/28 06:32:31;;;;;;;5.78;5.10;;;13.30;99.90;;;;;;5011912;28;20235;-79
2021/09/28 06:34:58;;;;;;;8.57;5.57;;;13.30;99.90;;;;;;4996107;28;20256;-78
2021/09/28 06:37:25;;;;;;;10.70;6.07;;;13.30;99.90;;;;;;5004723;28;20236;-78
2021/09/28 06:39:52;;;;;;;7.30;4.88;;;13.40;99.90;;;;;;5004080;28;20289;-80
2021/09/28 06:42:19;;;;;;;10.57;5.45;;;13.60;99.90;;;;;;5006060;28;20216;-80
2021/09/28 06:44:46;;;;;;;7.20;5.45;;;13.70;99.90;;;;;;5004584;28;20284;-80
2021/09/28 06:47:13;;;;;;;10.60;5.63;;;13.80;99.90;;;;;;5002051;28;20315;-82
2021/09/28 06:49:41;;;;;;;9.80;5.40;;;13.90;99.90;;;;;;4998997;28;20216;-80
2021/09/28 06:52:10;;;;;;;7.05;4.68;;;13.90;99.90;;;;;;5002046;28;20240;-80
2021/09/28 06:54:37;;;;;;;6.25;4.45;;;13.90;99.90;;;;;;5002605;28;20729;-79
2021/09/28 06:57:04;;;;;;;7.93;5.97;;;14.00;99.90;;;;;;5004977;28;20274;-80
2021/09/28 06:59:31;;;;;;;7.57;4.88;;;14.10;99.90;;;;;;5005530;28;20217;-80
2021/09/28 07:01:59;;;;;;;8.07;4.70;;;14.20;99.90;;;;;;5006185;28;20241;-81
2021/09/28 07:04:26;;;;;;;10.25;5.45;;;14.30;99.90;;;;;;5006756;28;20240;-80
2021/09/28 07:06:55;;;;;;;5.47;4.15;;;14.40;99.70;;;;;;5005816;28;20212;-80
2021/09/28 07:09:22;;;;;;;5.25;4.43;;;14.50;98.00;;;;;;5007104;28;20210;-80
2021/09/28 07:11:49;;;;;;;5.65;4.95;;;14.60;96.80;;;;;;5009507;28;20215;-81
2021/09/28 07:14:16;;;;;;;7.00;3.85;;;14.50;95.30;;;;;;5008419;28;20230;-81
2021/09/28 07:16:43;;;;;;;7.30;4.63;;;14.60;93.30;;;;;;5010478;28;20215;-79
2021/09/28 07:19:10;;;;;;;8.50;4.70;;;14.60;93.10;;;;;;5013599;28;20209;-79
2021/09/28 07:21:37;;;;;;;9.98;4.80;;;14.70;93.00;;;;;;5011807;28;20266;-79
2021/09/28 07:24:06;;;;;;;7.28;5.10;;;14.90;92.20;;;;;;5005708;28;20223;-80
2021/09/28 07:26:34;;;;;;;8.20;5.10;;;14.90;91.60;;;;;;5011143;28;20242;-80
2021/09/28 07:29:01;;;;;;;7.25;4.63;;;15.00;91.00;;;;;;5002741;28;20321;-80
2021/09/28 07:31:27;;;;;;;5.10;4.60;;;15.00;90.60;;;;;;5006290;28;20204;-78
2021/09/28 07:33:54;;;;;;;11.30;5.13;;;15.00;89.60;;;;;;4997522;28;20246;-79
2021/09/28 07:36:22;;;;;;;6.97;4.25;;;15.00;89.20;;;;;;4998194;28;20211;-78
2021/09/28 07:38:49;;;;;;;9.07;4.07;;;15.00;89.30;;;;;;4996367;28;20214;-79
2021/09/28 07:41:17;;;;;;;9.70;4.78;;;15.10;87.70;;;;;;4996568;28;20209;-77
2021/09/28 07:43:45;;;;;;;8.90;5.13;;;15.20;88.60;;;;;;5002751;28;20238;-80
2021/09/28 07:46:16;;;;;;;9.10;4.63;;;15.30;87.30;;;;;;5005999;28;20258;-78
2021/09/28 07:48:45;;;;;;;7.25;4.35;;;15.40;85.20;;;;;;5003544;28;20554;-78
2021/09/28 07:51:12;;;;;;;8.48;4.63;;;15.40;84.10;;;;;;5009735;28;20207;-80
2021/09/28 07:53:39;;;;;;;4.53;4.13;;;15.40;82.80;;;;;;5010770;28;20219;-79
2021/09/28 07:56:06;;;;;;;9.02;4.05;;;15.40;82.10;;;;;;5012153;28;20250;-77
2021/09/28 07:58:34;;;;;;;6.05;4.10;;;15.30;83.80;;;;;;5015638;28;20204;-80
2021/09/28 08:01:01;;;;;;;8.63;4.65;;;15.40;83.60;;;;;;5010856;28;20210;-79
2021/09/28 08:03:28;;;;;;;4.00;3.60;;;15.60;81.40;;;;;;5012228;28;20215;-79
2021/09/28 08:05:56;;;;;;;6.05;4.20;;;15.80;79.90;;;;;;5015376;28;20207;-78
2021/09/28 08:08:22;;;;;;;4.87;3.70;;;16.00;77.40;;;;;;5017084;28;20640;-78
2021/09/28 08:10:49;;;;;;;6.00;4.17;;;16.10;74.20;;;;;;5011073;28;20839;-79
2021/09/28 08:13:17;;;;;;;9.20;4.13;;;16.00;73.10;;;;;;5004187;28;20516;-81
2021/09/28 08:15:45;;;;;;;6.03;3.30;;;16.00;73.00;;;;;;5000541;28;20602;-78
2021/09/28 08:18:12;;;;;;;6.73;3.67;;;16.00;73.10;;;;;;5008031;28;20453;-80
2021/09/28 08:20:39;;;;;;;6.50;3.47;;;15.90;72.90;;;;;;5017236;28;20455;-79
2021/09/28 08:23:06;;;;;;;5.70;3.53;;;15.80;73.70;;;;;;5017717;28;20204;-80
2021/09/28 08:25:47;;;;;;;5.10;3.90;;;15.70;72.10;;;;;;5017693;28;20554;-80
2021/09/28 08:31:02;;;;;;;11.77;3.50;;;15.90;69.70;;;;;;5018292;28;20509;-81
2021/09/28 08:33:29;;;;;;;5.43;3.87;;;16.00;69.70;;;;;;5017415;28;20530;-81
2021/09/28 08:35:57;;;;;;;5.10;3.43;;;16.30;68.90;;;;;;5017888;28;20517;-82
2021/09/28 08:38:24;;;;;;;7.03;3.50;;;16.30;68.90;;;;;;5017723;28;20451;-81
2021/09/28 08:40:51;;;;;;;4.57;4.10;;;16.50;66.70;;;;;;5010877;28;20494;-82
2021/09/28 08:43:18;;;;;;;6.40;3.07;;;16.50;64.60;;;;;;5016712;28;20487;-81
2021/09/28 08:45:45;;;;;;;8.20;3.90;;;16.70;64.80;;;;;;5018712;28;20515;-81
2021/09/28 08:48:14;;;;;;;8.50;3.57;;;16.60;64.70;;;;;;5017566;28;20479;-81
2021/09/28 08:50:41;;;;;;;5.10;3.33;;;16.20;64.30;;;;;;5018225;28;20466;-81
2021/09/28 08:53:09;;;;;;;7.20;3.40;;;16.00;65.50;;;;;;5016122;28;20464;-81
2021/09/28 08:55:37;;;;;;;4.43;3.07;;;16.50;65.50;;;;;;5014140;28;20514;-81
2021/09/28 08:58:15;;;;;;;5.27;2.80;;;16.80;63.10;;;;;;5017248;28;20498;-82
2021/09/28 09:00:42;;;;;;;4.03;3.33;;;17.20;61.90;;;;;;5006680;28;20788;-82
2021/09/28 09:03:26;;;;;;;7.60;4.50;;;17.60;60.20;;;;;;5001252;28;20456;-82
2021/09/28 09:05:53;;;;;;;4.97;4.47;;;17.60;59.00;;;;;;5000157;28;20961;-83
2021/09/28 09:08:25;;;;;;;5.37;3.00;;;17.80;59.50;;;;;;5006785;28;20458;-83
2021/09/28 09:11:01;;;;;;;4.97;2.70;;;18.20;56.90;;;;;;5010256;28;20441;-82
2021/09/28 09:13:33;;;;;;;5.50;3.33;;;18.40;56.60;;;;;;5010844;28;20822;-83
2021/09/28 09:16:04;;;;;;;5.60;2.90;;;18.50;56.50;;;;;;5005960;28;20399;-82
2021/09/28 09:18:34;;;;;;;4.90;3.00;;;18.50;55.30;;;;;;4998501;28;20515;-82
2021/09/28 09:21:03;;;;;;;4.10;2.37;;;18.20;56.00;;;;;;4998924;28;20563;-82
2021/09/28 09:23:34;;;;;;;3.37;2.50;;;18.00;54.80;;;;;;4999168;28;20469;-82
2021/09/28 09:26:08;;;;;;;4.40;2.63;;;18.20;56.90;;;;;;5004962;28;20468;-82
2021/09/28 09:28:37;;;;;;;8.53;2.77;;;18.70;53.10;;;;;;5004330;28;20476;-81
2021/09/28 09:31:14;;;;;;;3.80;2.20;;;18.30;52.30;;;;;;5012115;28;20455;-83
2021/09/28 09:33:44;;;;;;;4.90;2.60;;;18.30;54.00;;;;;;5009238;28;20480;-81
2021/09/28 09:36:13;;;;;;;3.90;2.67;;;18.00;52.00;;;;;;4993389;28;20464;-82
2021/09/28 09:38:44;;;;;;;4.13;2.90;;;17.40;54.50;;;;;;4995930;28;20486;-81
2021/09/28 09:41:11;;;;;;;4.40;2.80;;;17.50;54.40;;;;;;5006415;28;20431;-82
2021/09/28 09:43:38;;;;;;;4.30;2.50;;;16.90;56.40;;;;;;5013518;28;20455;-82
2021/09/28 09:46:10;;;;;;;4.33;3.00;;;17.00;55.80;;;;;;5005611;28;20495;-82
2021/09/28 09:48:39;;;;;;;4.00;2.73;;;16.70;56.40;;;;;;5011345;28;20546;-83
2021/09/28 09:51:10;;;;;;;4.53;2.20;;;16.70;57.90;;;;;;5018139;28;20470;-84
2021/09/28 09:53:49;;;;;;;4.03;2.23;;;16.70;57.70;;;;;;5018476;28;20454;-83
2021/09/28 09:56:16;;;;;;;5.63;2.77;;;16.50;57.90;;;;;;5015118;28;20444;-80
2021/09/28 09:58:44;;;;;;;5.68;2.50;;;16.40;59.10;;;;;;5006737;28;20448;-83
2021/09/28 10:01:10;;;;;;;6.60;2.73;;;16.30;59.90;;;;;;5010388;28;20208;-81
2021/09/28 10:03:39;;;;;;;5.13;2.95;;;16.20;60.00;;;;;;5007823;28;20818;-82
2021/09/28 10:06:07;;;;;;;3.70;2.67;;;16.20;60.20;;;;;;5006195;28;20223;-81
2021/09/28 10:08:35;;;;;;;7.90;3.20;;;16.30;59.90;;;;;;5010705;28;20483;-82
2021/09/28 10:11:03;;;;;;;5.80;2.60;;;16.50;58.90;;;;;;5012867;28;20859;-82
2021/09/28 10:13:52;;;;;;;3.63;2.37;;;16.50;58.60;;;;;;5014545;28;20562;-80
2021/09/28 10:16:33;;;;;;;5.87;2.53;;;16.60;58.60;;;;;;5008153;28;20499;-81
2021/09/28 10:19:01;;;;;;;5.70;2.77;;;16.60;56.60;;;;;;5012023;28;20532;-81
2021/09/28 10:21:43;;;;;;;5.80;2.50;;;16.50;57.70;;;;;;5011484;28;20462;-81
2021/09/28 10:24:32;;;;;;;7.03;2.50;;;16.50;55.70;;;;;;5011028;28;20456;-80
2021/09/28 10:27:26;;;;;;;3.27;2.00;;;17.10;55.90;;;;;;5014633;28;20451;-81
2021/09/28 10:29:53;;;;;;;7.50;2.47;;;17.20;54.10;;;;;;5010642;28;20505;-81
2021/09/28 10:32:46;;;;;;;3.85;2.22;;;17.00;54.60;;;;;;5014426;28;20459;-80
2021/09/28 10:35:17;;;;;;;4.83;2.80;;;17.00;55.40;;;;;;5015664;28;20239;-80
2021/09/28 10:38:07;;;;;;;2.97;2.40;;;17.00;55.60;;;;;;5013730;28;20484;-80
2021/09/28 10:40:49;;;;;;;5.57;2.63;;;16.70;55.50;;;;;;5012480;28;20443;-81
2021/09/28 10:43:28;;;;;;;3.53;2.03;;;16.60;55.40;;;;;;5017684;28;20444;-80
2021/09/28 10:45:57;;;;;;;5.57;2.58;;;16.60;55.40;;;;;;5017737;28;20442;-79
2021/09/28 10:48:39;;;;;;;7.20;2.30;;;16.50;56.50;;;;;;5017195;28;20227;-82
2021/09/28 10:51:15;;;;;;;4.50;2.27;;;16.80;55.60;;;;;;5016792;28;20429;-81
2021/09/28 10:53:47;;;;;;;3.67;2.10;;;17.20;54.60;;;;;;5017654;28;20470;-81
2021/09/28 10:56:16;;;;;;;7.50;2.13;;;17.50;53.20;;;;;;5016320;28;20471;-82
2021/09/28 10:58:55;;;;;;;2.63;1.90;;;17.50;52.10;;;;;;5005902;28;20531;-81
2021/09/28 11:01:24;;;;;;;3.00;1.90;;;17.40;51.40;;;;;;5005825;28;20483;-81
2021/09/28 11:04:21;;;;;;;1.90;1.80;;;17.60;51.50;;;;;;5005889;28;20603;-82
2021/09/28 11:07:13;;;;;;;5.43;2.20;;;17.80;49.60;;;;;;5001380;28;20570;-82
2021/09/28 11:09:47;;;;;;;5.13;2.00;;;17.80;48.50;;;;;;5005430;28;20544;-81
2021/09/28 11:12:15;;;;;;;8.77;1.80;;;18.20;49.20;;;;;;5004121;28;20466;-81
2021/09/28 11:14:42;;;;;;;10.47;2.50;;;18.70;48.80;;;;;;5004565;28;20539;-82
2021/09/28 11:17:14;;;;;;;6.57;2.10;;;18.40;49.60;;;;;;5003553;28;20487;-81
2021/09/28 11:19:42;;;;;;;7.50;2.30;;;18.30;48.10;;;;;;5003463;28;20800;-81
2021/09/28 11:22:11;;;;;;;3.50;2.00;;;18.50;47.50;;;;;;5005826;28;20460;-81
2021/09/28 11:24:39;;;;;;;4.60;2.20;;;18.70;47.60;;;;;;5007160;28;20488;-80
2021/09/28 11:27:10;;;;;;;4.37;2.57;;;18.60;47.60;;;;;;5008475;28;20468;-80
2021/09/28 11:29:38;;;;;;;6.30;2.40;;;18.60;47.60;;;;;;5005056;28;20485;-82
2021/09/28 11:32:07;;;;;;;5.03;1.90;;;18.80;47.70;;;;;;5010612;28;20450;-80
2021/09/28 11:34:35;;;;;;;2.23;1.60;;;18.70;47.60;;;;;;5011634;28;20494;-81
2021/09/28 11:37:04;;;;;;;13.80;2.30;;;18.80;47.70;;;;;;5014098;28;20415;-79
2021/09/28 11:39:43;;;;;;;5.23;1.90;;;18.90;46.70;;;;;;5013443;28;20457;-82
2021/09/28 11:42:12;;;;;;;6.37;1.60;;;18.80;42.90;;;;;;4994007;28;20785;-81
2021/09/28 11:44:44;;;;;;;5.00;2.00;;;18.50;45.80;;;;;;5002207;28;20476;-81
2021/09/28 11:47:24;;;;;;;3.77;1.83;;;18.80;44.00;;;;;;5008739;28;20447;-80
2021/09/28 11:49:54;;;;;;;2.37;1.67;;;18.70;42.80;;;;;;4997739;28;20496;-80
2021/09/28 11:52:22;;;;;;;3.77;2.20;;;18.70;43.50;;;;;;4992494;28;20465;-80
2021/09/28 11:54:50;;;;;;;2.57;2.30;;;18.70;44.10;;;;;;4995604;28;20472;-80
2021/09/28 11:57:21;;;;;;;4.10;2.37;;;18.70;46.30;;;;;;5010782;28;20474;-81
2021/09/28 11:59:49;;;;;;;2.47;2.27;;;18.90;45.60;;;;;;5013794;28;20928;-80
2021/09/28 12:02:19;;;;;;;3.60;2.73;;;19.00;45.00;;;;;;5012145;28;20452;-81
2021/09/28 12:08:03;;;;;;;2.77;2.40;;;18.80;45.40;;;;;;5010044;28;20924;-82
2021/09/28 12:10:52;;;;;;;2.40;2.20;;;18.90;44.70;;;;;;5008827;28;20510;-81
2021/09/28 12:13:27;;;;;;;4.50;2.67;;;18.60;44.50;;;;;;5007713;28;20520;-79
2021/09/28 12:16:12;;;;;;;4.17;2.50;;;18.70;44.30;;;;;;5005490;28;20506;-81
2021/09/28 12:18:39;;;;;;;5.20;3.47;;;18.60;43.30;;;;;;5010363;28;20502;-82
2021/09/28 12:21:20;;;;;;;4.87;2.60;;;18.40;44.00;;;;;;5011721;28;20443;-80
2021/09/28 12:24:07;;;;;;;7.30;2.70;;;18.40;44.80;;;;;;5010784;28;20482;-82
2021/09/28 12:26:36;;;;;;;3.53;2.47;;;18.50;44.60;;;;;;5008713;28;20444;-81
2021/09/28 12:29:12;;;;;;;3.93;2.77;;;18.40;45.00;;;;;;5004223;28;20531;-79
2021/09/28 12:31:40;;;;;;;5.60;2.63;;;18.40;43.80;;;;;;5004003;28;20452;-81
2021/09/28 12:34:07;;;;;;;5.03;2.77;;;18.50;43.50;;;;;;5011617;28;20480;-81
2021/09/28 12:36:34;;;;;;;7.03;3.13;;;18.50;42.50;;;;;;5003372;28;20487;-82
2021/09/28 12:39:25;;;;;;;7.30;2.83;;;18.20;44.60;;;;;;5010463;28;20452;-81
2021/09/28 12:41:59;;;;;;;3.67;2.70;;;18.10;44.40;;;;;;5008394;28;20458;-81
2021/09/28 12:44:27;;;;;;;5.50;2.90;;;18.20;44.50;;;;;;5011813;28;20463;-79
2021/09/28 12:46:59;;;;;;;3.30;2.50;;;18.30;44.30;;;;;;5013249;28;20441;-80
2021/09/28 12:49:30;;;;;;;2.43;2.20;;;18.60;44.00;;;;;;5009543;28;20495;-81
2021/09/28 12:51:58;;;;;;;3.53;2.40;;;18.60;43.90;;;;;;5018077;28;20457;-83
2021/09/28 12:54:25;;;;;;;5.67;2.50;;;18.80;42.50;;;;;;5009145;28;20459;-82
2021/09/28 12:56:52;;;;;;;3.10;2.10;;;19.00;42.70;;;;;;5005291;28;20463;-82
2021/09/28 12:59:21;;;;;;;6.37;2.33;;;18.80;42.20;;;;;;5008443;28;20454;-81
2021/09/28 13:01:50;;;;;;;5.33;2.10;;;18.80;41.10;;;;;;5014701;28;20445;-81
2021/09/28 13:04:17;;;;;;;4.60;2.20;;;19.10;40.50;;;;;;5011095;28;20517;-83